createdAt,value
2019-03-20T00:00:48.160Z,102803.58
2019-03-20T00:03:16.003Z,102802.78
2019-03-20T00:05:43.745Z,102722.67
2019-03-20T00:08:11.482Z,102801.25
2019-03-20T00:10:39.211Z,102793.55
2019-03-20T00:13:06.935Z,102789.28
2019-03-20T00:15:34.679Z,102797.58
2019-03-20T00:18:02.420Z,102794.23
2019-03-20T00:20:30.138Z,102703.52
2019-03-20T00:22:57.862Z,102796.52
2019-03-20T00:25:25.643Z,102798.55
2019-03-20T00:27:53.411Z,102795.00
2019-03-20T00:30:21.154Z,102792.96
2019-03-20T00:32:48.872Z,102791.72
2019-03-20T00:35:16.635Z,102792.09
2019-03-20T00:37:44.395Z,102795.80
2019-03-20T00:40:29.119Z,102801.31
2019-03-20T00:42:56.951Z,102726.84
2019-03-20T00:45:24.774Z,102782.37
2019-03-20T00:47:52.492Z,102784.06
2019-03-20T00:50:20.252Z,102781.04
2019-03-20T00:52:48.012Z,102788.03
2019-03-20T00:55:15.731Z,102732.31
2019-03-20T00:57:43.480Z,102792.18
2019-03-20T01:00:12.910Z,102788.66
2019-03-20T01:02:40.754Z,102790.88
2019-03-20T01:05:12.411Z,102777.82
2019-03-20T01:07:38.003Z,102780.16
2019-03-20T01:10:06.151Z,102777.92
2019-03-20T01:12:45.502Z,102774.38
2019-03-20T01:15:10.540Z,102773.45
2019-03-20T01:17:38.389Z,102767.11
2019-03-20T01:20:06.264Z,102771.22
2019-03-20T01:22:34.018Z,102679.75
2019-03-20T01:25:01.785Z,102772.48
2019-03-20T01:27:29.531Z,102758.15
2019-03-20T01:29:57.243Z,102779.69
2019-03-20T01:32:25.052Z,102770.26
2019-03-20T01:34:52.747Z,102766.32
2019-03-20T01:37:20.728Z,102767.62
2019-03-20T01:39:48.451Z,102767.60
2019-03-20T01:42:16.203Z,102766.66
2019-03-20T01:44:43.976Z,102766.78
2019-03-20T01:47:11.710Z,102768.14
2019-03-20T01:49:39.456Z,102763.59
2019-03-20T01:52:07.179Z,102764.09
2019-03-20T01:54:49.556Z,102762.80
2019-03-20T01:57:10.075Z,102763.70
2019-03-20T01:59:37.799Z,102756.89
2019-03-20T02:02:12.790Z,102722.65
2019-03-20T02:04:40.507Z,102757.73
2019-03-20T02:07:08.270Z,102754.25
2019-03-20T02:09:36.207Z,102751.92
2019-03-20T02:12:03.955Z,102751.52
2019-03-20T02:14:31.976Z,102746.67
2019-03-20T02:17:00.123Z,102751.02
2019-03-20T02:19:27.959Z,102743.00
2019-03-20T02:21:55.800Z,102741.82
2019-03-20T02:24:23.555Z,102728.80
2019-03-20T02:26:51.422Z,102733.68
2019-03-20T02:29:19.125Z,102736.00
2019-03-20T02:31:46.835Z,102735.09
2019-03-20T02:34:24.843Z,102730.14
2019-03-20T02:36:54.915Z,102735.37
2019-03-20T02:39:22.643Z,102732.30
2019-03-20T02:41:50.375Z,102724.27
2019-03-20T02:44:18.259Z,102724.25
2019-03-20T02:46:46.004Z,102720.59
2019-03-20T02:49:13.764Z,102723.73
2019-03-20T02:51:41.463Z,102731.41
2019-03-20T02:54:09.182Z,102734.48
2019-03-20T02:56:36.895Z,102729.53
2019-03-20T02:59:04.621Z,102736.78
2019-03-20T03:01:32.319Z,102734.95
2019-03-20T03:04:00.032Z,102733.66
2019-03-20T03:06:27.777Z,102724.22
2019-03-20T03:08:55.522Z,102723.27
2019-03-20T03:11:26.183Z,102714.34
2019-03-20T03:13:55.012Z,102706.23
2019-03-20T03:16:22.815Z,102696.48
2019-03-20T03:18:50.551Z,102700.03
2019-03-20T03:21:18.387Z,102708.61
2019-03-20T03:23:46.130Z,102708.04
2019-03-20T03:26:13.866Z,102714.34
2019-03-20T03:28:41.610Z,102712.52
2019-03-20T03:31:09.327Z,102709.85
2019-03-20T03:33:37.031Z,102706.34
2019-03-20T03:36:04.766Z,102708.16
2019-03-20T03:38:32.572Z,102707.55
2019-03-20T03:41:00.415Z,102708.13
2019-03-20T03:43:28.172Z,102708.48
2019-03-20T03:45:55.874Z,102711.20
2019-03-20T03:48:23.613Z,102709.00
2019-03-20T03:50:51.406Z,102710.80
2019-03-20T03:53:29.681Z,102713.48
2019-03-20T03:55:54.514Z,102688.34
2019-03-20T03:58:22.235Z,102699.17
2019-03-20T04:00:49.977Z,102694.34
2019-03-20T04:03:17.720Z,102594.67
2019-03-20T04:05:45.466Z,102691.98
2019-03-20T04:08:13.217Z,102695.19
2019-03-20T04:10:40.932Z,102701.45
2019-03-20T04:13:08.656Z,102713.90
2019-03-20T04:15:36.591Z,102713.47
2019-03-20T04:18:04.346Z,102718.33
2019-03-20T04:20:32.067Z,102700.55
2019-03-20T04:22:59.860Z,102718.37
2019-03-20T04:25:27.573Z,102711.78
2019-03-20T04:27:58.450Z,102714.30
2019-03-20T04:30:26.257Z,102710.80
2019-03-20T04:33:04.496Z,102717.90
2019-03-20T04:35:32.858Z,102658.23
2019-03-20T04:38:00.759Z,102694.16
2019-03-20T04:40:28.480Z,102661.38
2019-03-20T04:42:56.200Z,102720.03
2019-03-20T04:45:23.979Z,102715.09
2019-03-20T04:47:51.736Z,102718.27
2019-03-20T04:50:19.527Z,102719.67
2019-03-20T04:52:47.371Z,102730.39
2019-03-20T04:55:15.178Z,102727.69
2019-03-20T04:57:45.447Z,102731.77
2019-03-20T05:00:13.116Z,102722.37
2019-03-20T05:02:40.940Z,102716.09
2019-03-20T05:05:08.686Z,102715.58
2019-03-20T05:07:50.712Z,102716.02
2019-03-20T05:10:12.776Z,102713.31
2019-03-20T05:12:40.563Z,102719.61
2019-03-20T05:15:08.782Z,102717.70
2019-03-20T05:17:36.655Z,102714.26
2019-03-20T05:20:04.591Z,102716.95
2019-03-20T05:22:32.391Z,102720.97
2019-03-20T05:25:00.332Z,102729.50
2019-03-20T05:27:28.094Z,102722.85
2019-03-20T05:29:55.859Z,102728.70
2019-03-20T05:32:23.604Z,102723.98
2019-03-20T05:34:51.455Z,102723.14
2019-03-20T05:37:19.311Z,102726.83
2019-03-20T05:42:45.062Z,102671.83
2019-03-20T05:45:13.251Z,102729.39
2019-03-20T05:47:41.024Z,102664.27
2019-03-20T05:50:09.546Z,102724.41
2019-03-20T05:52:37.275Z,102725.36
2019-03-20T05:55:05.100Z,102722.66
2019-03-20T05:57:32.848Z,102722.52
2019-03-20T06:00:00.580Z,102727.99
2019-03-20T06:02:28.325Z,102727.97
2019-03-20T06:04:56.026Z,102734.27
2019-03-20T06:07:23.873Z,102735.21
2019-03-20T06:09:51.580Z,102735.61
2019-03-20T06:12:19.439Z,102738.73
2019-03-20T06:14:47.201Z,102735.23
2019-03-20T06:17:18.349Z,102739.19
2019-03-20T06:19:47.205Z,102744.52
2019-03-20T06:22:14.940Z,102741.36
2019-03-20T06:24:42.752Z,102740.51
2019-03-20T06:27:10.765Z,102736.03
2019-03-20T06:29:38.491Z,102739.23
2019-03-20T06:32:06.226Z,102744.13
2019-03-20T06:34:34.103Z,102737.41
2019-03-20T06:37:01.951Z,102662.48
2019-03-20T06:39:29.918Z,102741.01
2019-03-20T06:41:57.628Z,102748.22
2019-03-20T06:44:25.371Z,102748.23
2019-03-20T06:46:53.118Z,102753.20
2019-03-20T06:49:20.870Z,102755.30
2019-03-20T06:51:48.624Z,102735.45
2019-03-20T06:54:16.354Z,102765.00
2019-03-20T06:56:44.096Z,102762.72
2019-03-20T06:59:49.512Z,102766.20
2019-03-20T07:02:18.030Z,102766.21
2019-03-20T07:05:10.928Z,102757.97
2019-03-20T07:07:46.507Z,102764.63
2019-03-20T07:10:22.537Z,102763.33
2019-03-20T07:12:50.249Z,102763.97
2019-03-20T07:15:17.999Z,102768.08
2019-03-20T07:17:45.857Z,102769.74
2019-03-20T07:20:13.571Z,102756.80
2019-03-20T07:22:41.307Z,102763.44
2019-03-20T07:25:09.033Z,102754.97
2019-03-20T07:27:36.799Z,102762.64
2019-03-20T07:30:04.924Z,102765.52
2019-03-20T07:32:32.635Z,102766.31
2019-03-20T07:35:00.383Z,102763.12
2019-03-20T07:37:28.112Z,102758.63
2019-03-20T07:39:55.884Z,102755.05
2019-03-20T07:42:25.581Z,102759.16
2019-03-20T07:45:02.735Z,102757.77
2019-03-20T07:47:30.539Z,102755.53
2019-03-20T07:49:58.263Z,102760.87
2019-03-20T07:52:25.971Z,102764.14
2019-03-20T07:54:54.817Z,102765.91
2019-03-20T07:57:22.711Z,102766.36
2019-03-20T07:59:50.426Z,102769.03
2019-03-20T08:02:18.235Z,102763.27
2019-03-20T08:04:45.954Z,102774.88
2019-03-20T08:07:13.688Z,102774.38
2019-03-20T08:09:41.438Z,102768.50
2019-03-20T08:12:09.150Z,102775.40
2019-03-20T08:14:36.870Z,102771.34
2019-03-20T08:17:04.603Z,102774.33
2019-03-20T08:19:35.258Z,102775.85
2019-03-20T08:22:11.907Z,102776.73
2019-03-20T08:24:39.667Z,102779.78
2019-03-20T08:27:07.398Z,102774.41
2019-03-20T08:29:35.118Z,102778.55
2019-03-20T08:32:02.856Z,102783.42
2019-03-20T08:34:30.567Z,102783.93
2019-03-20T08:36:58.326Z,102777.66
2019-03-20T08:39:26.071Z,102744.00
2019-03-20T08:41:53.791Z,102781.76
2019-03-20T08:44:21.504Z,102784.39
2019-03-20T08:46:49.319Z,102787.09
2019-03-20T08:49:17.043Z,102779.50
2019-03-20T08:51:44.759Z,102782.66
2019-03-20T08:54:12.523Z,102781.30
2019-03-20T08:56:48.875Z,102787.58
2019-03-20T08:59:18.131Z,102713.89
2019-03-20T09:01:46.020Z,102795.67
2019-03-20T09:04:13.794Z,102798.74
2019-03-20T09:06:41.561Z,102788.96
2019-03-20T09:09:09.287Z,102789.64
2019-03-20T09:11:37.011Z,102794.48
2019-03-20T09:14:04.737Z,102805.06
2019-03-20T09:16:32.457Z,102802.73
2019-03-20T09:19:00.224Z,102785.98
2019-03-20T09:21:27.956Z,102691.72
2019-03-20T09:23:55.670Z,102794.88
2019-03-20T09:26:23.391Z,102798.73
2019-03-20T09:28:51.155Z,102769.67
2019-03-20T09:31:18.863Z,102793.94
2019-03-20T09:33:46.602Z,102804.56
2019-03-20T09:36:42.395Z,102733.27
2019-03-20T09:39:01.452Z,102811.78
2019-03-20T09:41:29.228Z,102696.44
2019-03-20T09:43:56.961Z,102801.47
2019-03-20T09:46:24.721Z,102800.30
2019-03-20T09:48:52.446Z,102796.23
2019-03-20T09:51:20.246Z,102798.45
2019-03-20T09:53:48.041Z,102771.97
2019-03-20T09:56:15.783Z,102798.96
2019-03-20T09:58:43.507Z,102802.98
2019-03-20T10:01:11.231Z,102808.74
2019-03-20T10:03:39.070Z,102807.05
2019-03-20T10:06:06.806Z,102816.30
2019-03-20T10:08:34.523Z,102818.50
2019-03-20T10:11:10.366Z,102813.64
2019-03-20T10:13:38.097Z,102821.69
2019-03-20T10:16:05.799Z,102808.33
2019-03-20T10:18:33.527Z,102799.79
2019-03-20T10:21:01.246Z,102803.37
2019-03-20T10:23:28.947Z,102806.59
2019-03-20T10:25:56.666Z,102792.69
2019-03-20T10:28:24.371Z,102794.91
2019-03-20T10:30:52.075Z,102790.88
2019-03-20T10:33:19.814Z,102786.95
2019-03-20T10:35:50.581Z,102799.98
2019-03-20T10:38:17.357Z,102802.66
2019-03-20T10:40:45.095Z,102813.84
2019-03-20T10:43:12.807Z,102810.57
2019-03-20T10:45:40.543Z,102823.00
2019-03-20T10:48:16.824Z,102829.05
2019-03-20T10:50:44.600Z,102837.92
2019-03-20T10:53:12.326Z,102829.86
2019-03-20T10:55:40.054Z,102835.31
2019-03-20T10:58:07.783Z,102842.70
2019-03-20T11:00:35.553Z,102835.58
2019-03-20T11:03:03.271Z,102835.95
2019-03-20T11:05:30.980Z,102826.84
2019-03-20T11:07:58.715Z,102726.65
2019-03-20T11:10:26.458Z,102846.87
2019-03-20T11:12:54.272Z,102847.75
2019-03-20T11:15:22.070Z,102845.62
2019-03-20T11:17:49.818Z,102841.76
2019-03-20T11:20:17.634Z,102836.97
2019-03-20T11:22:45.449Z,102843.58
2019-03-20T11:25:13.870Z,102846.62
2019-03-20T11:27:48.795Z,102846.13
2019-03-20T11:30:17.973Z,102729.81
2019-03-20T11:32:45.807Z,102854.67
2019-03-20T11:35:13.531Z,102854.18
2019-03-20T11:37:41.250Z,102856.52
2019-03-20T11:40:10.463Z,102857.26
2019-03-20T11:42:40.669Z,102809.58
2019-03-20T11:45:08.175Z,102860.28
2019-03-20T11:47:35.884Z,102855.03
2019-03-20T11:50:04.203Z,102863.48
2019-03-20T11:52:31.902Z,102871.44
2019-03-20T11:54:59.667Z,102865.42
2019-03-20T11:57:27.547Z,102867.70
2019-03-20T11:59:55.264Z,102864.43
2019-03-20T12:02:28.375Z,102862.22
2019-03-20T12:05:02.063Z,102874.73
2019-03-20T12:07:29.811Z,102870.25
2019-03-20T12:09:58.977Z,102868.55
2019-03-20T12:12:26.835Z,102870.76
2019-03-20T12:14:54.675Z,102873.98
2019-03-20T12:17:22.391Z,102872.98
2019-03-20T12:19:50.107Z,102872.18
2019-03-20T12:22:17.834Z,102878.34
2019-03-20T12:24:45.578Z,102872.60
2019-03-20T12:27:15.386Z,102872.18
2019-03-20T12:29:42.758Z,102868.13
2019-03-20T12:32:10.501Z,102858.73
2019-03-20T12:34:38.219Z,102860.08
2019-03-20T12:37:05.935Z,102849.69
2019-03-20T12:39:53.012Z,102861.38
2019-03-20T12:42:15.495Z,102848.77
2019-03-20T12:44:43.226Z,102855.80
2019-03-20T12:47:10.971Z,102851.41
2019-03-20T12:49:38.719Z,102781.74
2019-03-20T12:52:06.547Z,102862.59
2019-03-20T12:54:34.268Z,102863.09
2019-03-20T12:57:01.974Z,102848.84
2019-03-20T12:59:29.678Z,102843.96
2019-03-20T13:01:57.382Z,102843.47
2019-03-20T13:04:25.167Z,102847.05
2019-03-20T13:06:52.903Z,102804.40
2019-03-20T13:09:20.606Z,102847.10
2019-03-20T13:11:48.322Z,102856.91
2019-03-20T13:14:17.228Z,102851.17
2019-03-20T13:16:51.139Z,102853.91
2019-03-20T13:19:18.850Z,102850.75
2019-03-20T13:21:47.636Z,102851.67
2019-03-20T13:24:15.598Z,102848.96
2019-03-20T13:26:43.433Z,102848.11
2019-03-20T13:29:11.173Z,102845.37
2019-03-20T13:31:38.977Z,102840.02
2019-03-20T13:34:06.703Z,102833.70
2019-03-20T13:36:34.499Z,102838.62
2019-03-20T13:39:02.287Z,102756.95
2019-03-20T13:41:30.064Z,102835.53
2019-03-20T13:43:57.788Z,102835.09
2019-03-20T13:46:25.482Z,102834.16
2019-03-20T13:48:53.215Z,102835.08
2019-03-20T13:51:20.956Z,102831.97
2019-03-20T13:53:48.692Z,102831.10
2019-03-20T13:56:23.282Z,102832.03
2019-03-20T13:58:52.299Z,102836.95
2019-03-20T14:01:20.198Z,102839.61
2019-03-20T14:03:47.923Z,102844.58
2019-03-20T14:06:15.670Z,102840.94
2019-03-20T14:08:43.395Z,102843.22
2019-03-20T14:11:11.227Z,102834.67
2019-03-20T14:13:38.935Z,102837.87
2019-03-20T14:16:06.655Z,102846.33
2019-03-20T14:18:34.386Z,102844.15
2019-03-20T14:21:02.119Z,102839.72
2019-03-20T14:23:29.831Z,102838.87
2019-03-20T14:25:57.538Z,102842.44
2019-03-20T14:28:25.255Z,102842.47
2019-03-20T14:30:52.975Z,102851.42
2019-03-20T14:33:20.770Z,102849.14
2019-03-20T14:35:59.237Z,102855.42
2019-03-20T14:38:18.057Z,102847.50
2019-03-20T14:40:45.918Z,102848.66
2019-03-20T14:43:13.839Z,102849.06
2019-03-20T14:45:42.043Z,102839.67
2019-03-20T14:48:09.868Z,102841.52
2019-03-20T14:50:37.736Z,102844.13
2019-03-20T14:53:05.555Z,102842.80
2019-03-20T14:55:33.361Z,102841.89
2019-03-20T14:58:01.140Z,102849.11
2019-03-20T15:00:29.097Z,102848.62
2019-03-20T15:02:56.965Z,102859.83
2019-03-20T15:05:24.793Z,102858.58
2019-03-20T15:07:52.591Z,102865.17
2019-03-20T15:10:20.640Z,102863.45
2019-03-20T15:12:48.423Z,102868.38
2019-03-20T15:15:26.968Z,102875.09
2019-03-20T15:17:54.846Z,102868.41
2019-03-20T15:20:22.694Z,102865.66
2019-03-20T15:22:50.593Z,102863.02
2019-03-20T15:25:18.520Z,102865.66
2019-03-20T15:27:46.398Z,102860.75
2019-03-20T15:30:14.775Z,102864.80
2019-03-20T15:32:42.594Z,102861.23
2019-03-20T15:35:10.543Z,102858.98
2019-03-20T15:37:38.404Z,102858.53
2019-03-20T15:40:07.224Z,102856.80
2019-03-20T15:42:35.110Z,102846.44
2019-03-20T15:45:02.921Z,102854.97
2019-03-20T15:47:30.806Z,102856.74
2019-03-20T15:49:58.608Z,102858.98
2019-03-20T15:52:26.457Z,102854.52
2019-03-20T15:54:54.290Z,102854.48
2019-03-20T15:57:22.087Z,102855.41
2019-03-20T15:59:49.985Z,102857.23
2019-03-20T16:02:17.852Z,102854.95
2019-03-20T16:04:45.620Z,102856.74
2019-03-20T16:07:13.439Z,102860.80
2019-03-20T16:09:41.453Z,102858.99
2019-03-20T16:12:09.339Z,102867.98
2019-03-20T16:14:37.155Z,102873.79
2019-03-20T16:17:04.980Z,102871.08
2019-03-20T16:19:32.791Z,102875.16
2019-03-20T16:22:00.601Z,102872.94
2019-03-20T16:24:28.414Z,102867.09
2019-03-20T16:26:56.308Z,102870.19
2019-03-20T16:29:24.124Z,102869.34
2019-03-20T16:31:51.894Z,102865.28
2019-03-20T16:34:19.812Z,102867.99
2019-03-20T16:36:47.841Z,102872.45
2019-03-20T16:39:15.639Z,102874.69
2019-03-20T16:41:43.553Z,102874.22
2019-03-20T16:44:11.753Z,102883.69
2019-03-20T16:46:39.667Z,102880.07
2019-03-20T16:49:07.489Z,102881.88
2019-03-20T16:51:35.315Z,102889.04
2019-03-20T16:54:03.099Z,102849.52
2019-03-20T16:56:31.145Z,102797.91
2019-03-20T16:58:59.025Z,102910.73
2019-03-20T17:01:26.808Z,102911.16
2019-03-20T17:03:54.634Z,102911.14
2019-03-20T17:06:23.119Z,102918.33
2019-03-20T17:08:51.552Z,102916.09
2019-03-20T17:11:30.284Z,102925.98
2019-03-20T17:13:49.920Z,102928.23
2019-03-20T17:16:17.785Z,102931.86
2019-03-20T17:18:46.061Z,102924.69
2019-03-20T17:24:32.269Z,102924.65
2019-03-20T17:27:12.083Z,102925.55
2019-03-20T17:33:24.006Z,102934.07
2019-03-20T17:36:18.664Z,102877.52
2019-03-20T17:45:45.946Z,102921.53
2019-03-20T17:48:33.149Z,102923.80
2019-03-20T17:51:02.095Z,102932.78
2019-03-20T17:53:29.846Z,102904.89
2019-03-20T17:55:58.030Z,102934.50
2019-03-20T17:58:26.347Z,102930.44
2019-03-20T18:01:07.409Z,102931.77
2019-03-20T18:03:35.625Z,102931.33
2019-03-20T18:06:04.528Z,102935.45
2019-03-20T18:08:33.262Z,102943.97
2019-03-20T18:11:01.080Z,102934.53
2019-03-20T18:13:28.887Z,102937.68
2019-03-20T18:15:56.840Z,102877.11
2019-03-20T18:18:30.133Z,102947.11
2019-03-20T18:20:58.594Z,102943.09
2019-03-20T18:23:26.738Z,102953.84
2019-03-20T18:25:55.507Z,102957.42
2019-03-20T18:31:46.359Z,102968.21
2019-03-20T18:34:15.522Z,102969.11
2019-03-20T18:36:43.429Z,102970.45
2019-03-20T18:39:11.415Z,102971.78
2019-03-20T18:41:39.267Z,102977.17
2019-03-20T18:44:10.832Z,102981.23
2019-03-20T18:46:41.066Z,102925.11
2019-03-20T18:49:08.902Z,102980.37
2019-03-20T18:51:36.647Z,102982.13
2019-03-20T18:54:04.401Z,102965.51
2019-03-20T18:56:33.211Z,102978.54
2019-03-20T18:59:02.858Z,102909.38
2019-03-20T19:01:30.749Z,102977.64
2019-03-20T19:03:58.676Z,102974.97
2019-03-20T19:06:26.738Z,102976.31
2019-03-20T19:15:32.992Z,102981.68
2019-03-20T19:18:07.040Z,102900.87
2019-03-20T19:20:34.790Z,102975.41
2019-03-20T19:25:56.659Z,102974.08
2019-03-20T19:28:24.520Z,102978.58
2019-03-20T19:31:15.660Z,102974.06
2019-03-20T19:33:59.737Z,102973.63
2019-03-20T19:36:27.594Z,102877.59
2019-03-20T19:38:55.373Z,102883.38
2019-03-20T19:41:23.174Z,102987.97
2019-03-20T19:43:50.895Z,102992.03
2019-03-20T19:46:18.622Z,102985.80
2019-03-20T19:48:46.390Z,102995.15
2019-03-20T19:51:14.299Z,102994.25
2019-03-20T19:53:48.160Z,103002.80
2019-03-20T19:56:13.331Z,103005.94
2019-03-20T19:58:41.063Z,103003.28
2019-03-20T20:01:08.927Z,103010.47
2019-03-20T20:03:36.690Z,103011.38
2019-03-20T20:06:04.450Z,103002.39
2019-03-20T20:08:32.203Z,103007.72
2019-03-20T20:10:59.927Z,103006.81
2019-03-20T20:13:27.747Z,103014.94
2019-03-20T20:15:55.502Z,103006.86
2019-03-20T20:18:23.281Z,103007.77
2019-03-20T20:20:51.087Z,103005.07
2019-03-20T20:23:18.815Z,103013.16
2019-03-20T20:25:46.589Z,103007.33
2019-03-20T20:28:14.371Z,103006.81
2019-03-20T20:30:42.123Z,103016.73
2019-03-20T20:33:09.895Z,103014.91
2019-03-20T20:35:44.537Z,103017.21
2019-03-20T20:38:09.513Z,103014.89
2019-03-20T20:40:37.282Z,103014.92
2019-03-20T20:43:05.019Z,103019.41
2019-03-20T20:45:33.185Z,103015.85
2019-03-20T20:48:01.043Z,103014.50
2019-03-20T20:50:28.830Z,103021.62
2019-03-20T20:52:56.553Z,102920.59
2019-03-20T20:55:24.398Z,103028.86
2019-03-20T20:57:52.236Z,103027.45
2019-03-20T21:00:20.090Z,103033.78
2019-03-20T21:02:47.887Z,103029.32
2019-03-20T21:05:15.636Z,103026.19
2019-03-20T21:07:43.417Z,103029.77
2019-03-20T21:10:11.647Z,103032.00
2019-03-20T21:12:39.422Z,103004.56
2019-03-20T21:15:17.324Z,103027.91
2019-03-20T21:18:04.974Z,102937.66
2019-03-20T21:20:33.155Z,103031.50
2019-03-20T21:23:26.523Z,103034.20
2019-03-20T21:25:55.173Z,103032.38
2019-03-20T21:28:59.773Z,103026.98
2019-03-20T21:31:38.747Z,102953.38
2019-03-20T21:34:24.886Z,103030.20
2019-03-20T21:37:15.253Z,103035.15
2019-03-20T21:39:43.334Z,103036.06
2019-03-20T21:42:33.512Z,103034.25
2019-03-20T21:45:19.323Z,103032.92
2019-03-20T21:47:47.734Z,103031.11
2019-03-20T21:50:34.834Z,103034.70
2019-03-20T21:53:03.052Z,103034.27
2019-03-20T21:55:48.245Z,103034.27
2019-03-20T21:58:38.334Z,103036.95
2019-03-20T22:01:24.601Z,103036.52
2019-03-20T22:03:52.797Z,103042.34
2019-03-20T22:06:38.935Z,103038.75
2019-03-20T22:09:31.966Z,103038.73
2019-03-20T22:12:28.405Z,103044.14
2019-03-20T22:14:59.239Z,103040.55
2019-03-20T22:17:50.777Z,103049.52
2019-03-20T22:20:22.093Z,102943.95
2019-03-20T22:23:08.065Z,102972.23
2019-03-20T22:25:57.079Z,103051.34
2019-03-20T22:28:35.683Z,103045.94
2019-03-20T22:31:03.993Z,103051.78
2019-03-20T22:33:50.269Z,103054.95
2019-03-20T22:36:23.911Z,103048.17
2019-03-20T22:39:23.798Z,103058.95
2019-03-20T22:41:58.498Z,103046.83
2019-03-20T22:44:26.904Z,103057.17
2019-03-20T22:47:18.112Z,103059.84
2019-03-20T22:49:56.769Z,103064.80
2019-03-20T22:52:42.619Z,103071.54
2019-03-20T22:55:36.334Z,103064.33
2019-03-20T22:58:16.729Z,103053.59
2019-03-20T23:00:45.346Z,103058.49
2019-03-20T23:03:16.641Z,103060.28
2019-03-20T23:05:44.741Z,103064.31
2019-03-20T23:08:13.077Z,103061.20
2019-03-20T23:10:41.254Z,103062.98
2019-03-20T23:13:18.464Z,103066.12
2019-03-20T23:15:39.551Z,103062.53
2019-03-20T23:18:08.731Z,103059.41
2019-03-20T23:20:38.017Z,103067.95
2019-03-20T23:23:07.387Z,103069.26
2019-03-20T23:25:37.074Z,103070.16
2019-03-20T23:28:05.204Z,103071.06
2019-03-20T23:30:33.523Z,103069.28
2019-03-20T23:33:01.682Z,102967.77
2019-03-20T23:35:29.960Z,103066.58
2019-03-20T23:37:58.080Z,103060.30
2019-03-20T23:40:26.185Z,103062.53
2019-03-20T23:42:54.310Z,103067.48
2019-03-20T23:45:22.585Z,103058.08
2019-03-20T23:47:55.471Z,103057.16
2019-03-20T23:50:23.812Z,103058.50
2019-03-20T23:52:51.901Z,103051.30
2019-03-20T23:55:20.028Z,103057.19
2019-03-20T23:57:48.219Z,103054.95
